createdAt,value
2023-04-10T00:01:38.814Z,79.14
2023-04-10T00:04:11.592Z,79.38
2023-04-10T00:06:38.246Z,79.46
2023-04-10T00:09:04.736Z,79.47
2023-04-10T00:11:31.224Z,79.42
2023-04-10T00:13:57.722Z,79.74
2023-04-10T00:16:26.954Z,79.77
2023-04-10T00:18:53.511Z,80.09
2023-04-10T00:21:19.972Z,80.26
2023-04-10T00:23:46.497Z,80.30
2023-04-10T00:26:12.964Z,80.12
2023-04-10T00:28:39.409Z,80.09
2023-04-10T00:31:06.008Z,79.92
2023-04-10T00:33:32.503Z,79.98
2023-04-10T00:35:59.070Z,80.07
2023-04-10T00:38:28.472Z,80.37
2023-04-10T00:40:57.910Z,80.18
2023-04-10T00:43:24.371Z,80.33
2023-04-10T00:45:51.050Z,80.31
2023-04-10T00:48:17.837Z,80.27
2023-04-10T00:50:47.353Z,80.41
2023-04-10T00:53:13.921Z,80.67
2023-04-10T00:55:41.113Z,80.85
2023-04-10T00:58:07.699Z,80.30
2023-04-10T01:00:36.521Z,80.72
2023-04-10T01:03:03.610Z,80.70
2023-04-10T01:05:54.514Z,80.51
2023-04-10T01:08:33.570Z,80.30
2023-04-10T01:11:18.248Z,80.80
2023-04-10T01:13:58.168Z,81.00
2023-04-10T01:16:34.823Z,80.90
2023-04-10T01:19:13.312Z,81.33
2023-04-10T01:21:41.511Z,81.16
2023-04-10T01:24:21.787Z,81.47
2023-04-10T01:27:19.707Z,81.21
2023-04-10T01:29:55.335Z,81.32
2023-04-10T01:32:24.017Z,80.76
2023-04-10T01:34:55.451Z,80.29
2023-04-10T01:37:30.269Z,80.42
2023-04-10T01:40:03.532Z,80.57
2023-04-10T01:42:32.699Z,80.37
2023-04-10T01:45:01.215Z,80.47
2023-04-10T01:47:31.031Z,80.48
2023-04-10T01:50:02.106Z,80.33
2023-04-10T01:52:33.409Z,80.00
2023-04-10T01:55:01.753Z,80.17
2023-04-10T01:57:34.648Z,80.13
2023-04-10T02:00:01.094Z,80.34
2023-04-10T02:02:32.109Z,80.22
2023-04-10T02:04:58.760Z,80.34
2023-04-10T02:07:28.508Z,79.67
2023-04-10T02:10:02.408Z,79.70
2023-04-10T02:12:32.071Z,79.87
2023-04-10T02:15:01.898Z,79.68
2023-04-10T02:17:33.796Z,79.67
2023-04-10T02:20:01.413Z,79.34
2023-04-10T02:22:28.465Z,79.69
2023-04-10T02:24:55.032Z,80.39
2023-04-10T02:27:32.430Z,80.58
2023-04-10T02:29:59.531Z,80.70
2023-04-10T02:32:27.914Z,81.77
2023-04-10T02:34:54.530Z,82.16
2023-04-10T02:37:24.255Z,82.13
2023-04-10T02:39:51.319Z,81.94
2023-04-10T02:42:18.047Z,82.12
2023-04-10T02:44:44.655Z,81.93
2023-04-10T02:47:11.290Z,81.82
2023-04-10T02:49:37.756Z,81.70
2023-04-10T02:52:07.250Z,82.13
2023-04-10T02:54:33.772Z,82.21
2023-04-10T02:57:00.361Z,82.06
2023-04-10T02:59:27.719Z,81.95
2023-04-10T03:01:54.305Z,81.94
2023-04-10T03:04:21.008Z,81.47
2023-04-10T03:06:47.544Z,81.06
2023-04-10T03:09:14.020Z,80.45
2023-04-10T03:11:40.526Z,80.25
2023-04-10T03:14:07.207Z,80.00
2023-04-10T03:16:33.744Z,79.97
2023-04-10T03:19:00.721Z,79.18
2023-04-10T03:21:27.454Z,78.92
2023-04-10T03:23:54.041Z,78.08
2023-04-10T03:26:21.153Z,77.61
2023-04-10T03:28:50.814Z,76.77
2023-04-10T03:31:17.326Z,76.94
2023-04-10T03:33:43.856Z,76.53
2023-04-10T03:36:11.483Z,76.46
2023-04-10T03:38:38.016Z,76.44
2023-04-10T03:41:04.817Z,76.53
2023-04-10T03:43:31.563Z,76.76
2023-04-10T03:45:58.389Z,76.98
2023-04-10T03:48:28.149Z,77.20
2023-04-10T03:50:55.433Z,77.24
2023-04-10T03:53:21.997Z,77.54
2023-04-10T03:55:48.494Z,77.63
2023-04-10T03:58:14.985Z,77.30
2023-04-10T04:00:41.562Z,77.07
2023-04-10T04:03:08.397Z,77.32
2023-04-10T04:05:35.301Z,76.86
2023-04-10T04:08:03.330Z,76.70
2023-04-10T04:10:29.782Z,77.18
2023-04-10T04:12:56.275Z,77.60
2023-04-10T04:15:23.834Z,77.39
2023-04-10T04:17:50.553Z,77.78
2023-04-10T04:20:17.083Z,78.06
2023-04-10T04:22:43.568Z,78.34
2023-04-10T04:25:10.880Z,78.39
2023-04-10T04:27:38.024Z,78.34
2023-04-10T04:30:05.989Z,78.37
2023-04-10T04:32:32.601Z,78.61
2023-04-10T04:34:59.086Z,78.75
2023-04-10T04:37:25.582Z,78.51
2023-04-10T04:39:52.026Z,78.33
2023-04-10T04:42:18.548Z,78.22
2023-04-10T04:44:45.042Z,78.28
2023-04-10T04:47:11.658Z,78.32
2023-04-10T04:49:38.093Z,78.54
2023-04-10T04:52:04.739Z,78.35
2023-04-10T04:54:31.182Z,78.12
2023-04-10T04:56:57.807Z,78.45
2023-04-10T04:59:24.306Z,79.06
2023-04-10T05:01:50.935Z,79.47
2023-04-10T05:04:17.683Z,79.47
2023-04-10T05:06:44.204Z,79.51
2023-04-10T05:09:11.035Z,79.92
2023-04-10T05:11:37.484Z,80.26
2023-04-10T05:14:04.006Z,80.28
2023-04-10T05:16:30.586Z,80.48
2023-04-10T05:18:57.284Z,80.39
2023-04-10T05:21:23.981Z,80.41
2023-04-10T05:23:50.527Z,80.58
2023-04-10T05:26:16.963Z,80.08
2023-04-10T05:28:46.851Z,80.56
2023-04-10T05:31:15.250Z,81.16
2023-04-10T05:33:44.987Z,81.58
2023-04-10T05:36:13.039Z,82.21
2023-04-10T05:38:39.548Z,82.15
2023-04-10T05:41:06.079Z,82.07
2023-04-10T05:43:32.687Z,82.56
2023-04-10T05:45:59.188Z,82.46
2023-04-10T05:48:26.292Z,83.30
2023-04-10T05:50:52.817Z,83.84
2023-04-10T05:53:20.411Z,84.33
2023-04-10T05:55:54.550Z,85.78
2023-04-10T05:58:21.032Z,85.77
2023-04-10T06:00:47.489Z,85.97
2023-04-10T06:03:14.059Z,86.07
2023-04-10T06:05:41.487Z,85.48
2023-04-10T06:08:07.974Z,85.16
2023-04-10T06:10:34.503Z,84.67
2023-04-10T06:13:01.300Z,83.01
2023-04-10T06:15:28.467Z,81.30
2023-04-10T06:17:55.552Z,80.92
2023-04-10T06:20:22.375Z,81.04
2023-04-10T06:22:48.910Z,80.36
2023-04-10T06:25:15.577Z,78.99
2023-04-10T06:27:42.046Z,76.47
2023-04-10T06:30:09.301Z,76.83
2023-04-10T06:32:35.817Z,76.60
2023-04-10T06:35:02.616Z,75.22
2023-04-10T06:37:32.740Z,78.79
2023-04-10T06:40:07.933Z,81.23
2023-04-10T06:42:35.258Z,82.33
2023-04-10T06:45:02.283Z,82.85
2023-04-10T06:47:29.009Z,82.75
2023-04-10T06:49:55.796Z,82.67
2023-04-10T06:52:22.333Z,80.91
2023-04-10T06:54:49.027Z,81.10
2023-04-10T06:57:16.144Z,78.69
2023-04-10T06:59:43.165Z,74.84
2023-04-10T07:02:09.818Z,74.61
2023-04-10T07:04:36.712Z,74.82
2023-04-10T07:07:03.732Z,74.85
2023-04-10T07:09:31.121Z,74.19
2023-04-10T07:11:57.642Z,72.49
2023-04-10T07:14:24.344Z,70.05
2023-04-10T07:16:51.299Z,70.99
2023-04-10T07:19:17.821Z,70.77
2023-04-10T07:21:44.309Z,70.45
2023-04-10T07:24:10.765Z,70.05
2023-04-10T07:26:37.242Z,69.84
2023-04-10T07:29:03.671Z,70.69
2023-04-10T07:31:30.575Z,70.83
2023-04-10T07:33:57.104Z,70.69
2023-04-10T07:36:23.586Z,70.88
2023-04-10T07:38:50.022Z,69.48
2023-04-10T07:41:16.587Z,69.77
2023-04-10T07:43:43.113Z,70.21
2023-04-10T07:46:09.758Z,68.83
2023-04-10T07:48:36.612Z,68.41
2023-04-10T07:51:03.492Z,68.19
2023-04-10T07:53:30.022Z,67.57
2023-04-10T07:55:56.572Z,66.72
2023-04-10T07:58:23.021Z,67.07
2023-04-10T08:00:49.540Z,66.96
2023-04-10T08:03:16.666Z,66.30
2023-04-10T08:05:43.397Z,66.07
2023-04-10T08:08:09.905Z,65.64
2023-04-10T08:10:37.850Z,64.68
2023-04-10T08:13:04.711Z,63.71
2023-04-10T08:15:31.317Z,63.60
2023-04-10T08:17:57.914Z,63.13
2023-04-10T08:20:24.481Z,62.10
2023-04-10T08:22:51.037Z,62.36
2023-04-10T08:25:17.595Z,61.05
2023-04-10T08:27:44.098Z,60.71
2023-04-10T08:30:10.798Z,60.04
2023-04-10T08:32:38.724Z,59.42
2023-04-10T08:35:05.762Z,58.99
2023-04-10T08:37:32.243Z,57.72
2023-04-10T08:39:58.812Z,57.35
2023-04-10T08:42:26.286Z,55.27
2023-04-10T08:44:53.023Z,54.60
2023-04-10T08:47:21.521Z,54.67
2023-04-10T08:49:56.823Z,55.52
2023-04-10T08:52:26.107Z,55.16
2023-04-10T08:54:57.496Z,54.70
2023-04-10T08:57:24.228Z,54.38
2023-04-10T08:59:51.669Z,53.65
2023-04-10T09:02:18.983Z,53.18
2023-04-10T09:04:51.571Z,52.76
2023-04-10T09:07:18.273Z,52.56
2023-04-10T09:09:44.853Z,51.58
2023-04-10T09:12:14.006Z,51.27
2023-04-10T09:14:41.391Z,50.72
2023-04-10T09:17:24.013Z,50.43
2023-04-10T09:19:52.894Z,50.20
2023-04-10T09:22:31.387Z,50.62
2023-04-10T09:25:00.296Z,49.52
2023-04-10T09:27:32.139Z,50.08
2023-04-10T09:29:58.778Z,51.22
2023-04-10T09:32:44.258Z,50.55
2023-04-10T09:35:15.945Z,50.77
2023-04-10T09:37:45.865Z,49.89
2023-04-10T09:40:25.846Z,50.49
2023-04-10T09:42:53.462Z,50.40
2023-04-10T09:45:20.754Z,50.81
2023-04-10T09:48:08.082Z,50.31
2023-04-10T09:50:40.187Z,50.39
2023-04-10T09:53:15.041Z,49.62
2023-04-10T09:55:42.799Z,50.26
2023-04-10T09:58:10.497Z,49.27
2023-04-10T10:00:41.041Z,49.74
2023-04-10T10:03:13.303Z,49.57
2023-04-10T10:05:43.167Z,49.49
2023-04-10T10:08:17.322Z,49.52
2023-04-10T10:10:50.882Z,49.10
2023-04-10T10:13:47.937Z,49.94
2023-04-10T10:16:25.778Z,49.31
2023-04-10T10:19:06.495Z,48.98
2023-04-10T10:21:34.766Z,48.68
2023-04-10T10:24:02.974Z,48.77
2023-04-10T10:26:32.123Z,49.45
2023-04-10T10:28:59.201Z,48.44
2023-04-10T10:31:26.121Z,48.49
2023-04-10T10:33:52.973Z,48.12
2023-04-10T10:36:20.691Z,47.83
2023-04-10T10:39:14.561Z,48.15
2023-04-10T10:41:49.602Z,47.92
2023-04-10T10:44:41.673Z,47.85
2023-04-10T10:47:14.175Z,48.43
2023-04-10T10:50:03.373Z,46.52
2023-04-10T10:52:53.820Z,45.92
2023-04-10T10:55:27.354Z,46.14
2023-04-10T10:58:05.387Z,47.36
2023-04-10T11:00:50.350Z,47.49
2023-04-10T11:03:16.990Z,46.94
2023-04-10T11:05:58.623Z,45.91
2023-04-10T11:08:35.134Z,46.39
2023-04-10T11:11:08.327Z,45.95
2023-04-10T11:13:36.650Z,45.47
2023-04-10T11:16:04.980Z,45.48
2023-04-10T11:18:51.212Z,46.14
2023-04-10T11:21:23.467Z,45.42
2023-04-10T11:23:49.901Z,44.88
2023-04-10T11:26:43.725Z,45.22
2023-04-10T11:29:16.237Z,45.49
2023-04-10T11:31:44.472Z,44.87
2023-04-10T11:34:11.322Z,43.51
2023-04-10T11:36:42.396Z,45.35
2023-04-10T11:39:13.567Z,44.64
2023-04-10T11:41:40.063Z,44.84
2023-04-10T11:44:14.733Z,44.92
2023-04-10T11:46:42.866Z,44.34
2023-04-10T11:49:10.882Z,44.72
2023-04-10T11:51:38.732Z,44.22
2023-04-10T11:54:13.231Z,44.45
2023-04-10T11:56:42.339Z,44.23
2023-04-10T11:59:14.476Z,45.15
2023-04-10T12:01:42.940Z,45.09
2023-04-10T12:04:15.686Z,44.45
2023-04-10T12:06:46.991Z,43.88
2023-04-10T12:09:16.089Z,45.29
2023-04-10T12:12:09.121Z,45.46
2023-04-10T12:14:40.267Z,45.52
2023-04-10T12:17:09.383Z,45.44
2023-04-10T12:19:36.720Z,45.52
2023-04-10T12:22:03.273Z,45.75
2023-04-10T12:24:45.052Z,45.97
2023-04-10T12:27:28.611Z,45.73
2023-04-10T12:29:57.122Z,45.61
2023-04-10T12:32:24.861Z,45.10
2023-04-10T12:34:57.516Z,44.87
2023-04-10T12:37:25.334Z,45.18
2023-04-10T12:39:52.022Z,45.06
2023-04-10T12:42:22.296Z,45.26
2023-04-10T12:44:59.898Z,45.51
2023-04-10T12:47:28.792Z,45.88
2023-04-10T12:50:10.916Z,46.29
2023-04-10T12:52:40.435Z,45.49
2023-04-10T12:55:13.491Z,46.27
2023-04-10T12:57:41.609Z,46.09
2023-04-10T13:00:11.023Z,46.54
2023-04-10T13:02:38.453Z,46.94
2023-04-10T13:05:08.763Z,47.29
2023-04-10T13:07:36.482Z,47.07
2023-04-10T13:10:04.588Z,46.12
2023-04-10T13:12:31.451Z,47.12
2023-04-10T13:14:57.925Z,47.72
2023-04-10T13:17:25.027Z,47.73
2023-04-10T13:19:52.468Z,47.19
2023-04-10T13:22:19.875Z,47.70
2023-04-10T13:24:46.633Z,47.94
2023-04-10T13:27:13.396Z,47.75
2023-04-10T13:29:41.979Z,48.59
2023-04-10T13:32:08.622Z,48.25
2023-04-10T13:34:35.861Z,47.91
2023-04-10T13:37:02.780Z,48.30
2023-04-10T13:39:31.364Z,48.86
2023-04-10T13:42:02.181Z,48.29
2023-04-10T13:44:28.798Z,48.25
2023-04-10T13:46:55.581Z,48.04
2023-04-10T13:49:22.349Z,47.48
2023-04-10T13:51:49.192Z,47.82
2023-04-10T13:54:20.016Z,47.16
2023-04-10T13:56:46.862Z,47.63
2023-04-10T13:59:13.529Z,47.66
2023-04-10T14:01:40.058Z,47.88
2023-04-10T14:04:06.668Z,47.78
2023-04-10T14:06:33.372Z,47.70
2023-04-10T14:08:59.896Z,47.50
2023-04-10T14:11:26.451Z,48.12
2023-04-10T14:13:53.281Z,48.74
2023-04-10T14:16:22.163Z,48.35
2023-04-10T14:18:48.689Z,48.49
2023-04-10T14:21:15.241Z,48.21
2023-04-10T14:23:42.745Z,48.94
2023-04-10T14:26:09.360Z,48.31
2023-04-10T14:28:35.937Z,48.49
2023-04-10T14:31:02.651Z,48.45
2023-04-10T14:33:29.553Z,47.99
2023-04-10T14:35:56.124Z,48.23
2023-04-10T14:38:22.679Z,48.65
2023-04-10T14:40:50.187Z,48.66
2023-04-10T14:43:19.361Z,48.44
2023-04-10T14:45:46.080Z,48.03
2023-04-10T14:48:13.313Z,48.74
2023-04-10T14:50:40.075Z,47.72
2023-04-10T14:53:09.562Z,47.97
2023-04-10T14:55:37.109Z,48.22
2023-04-10T14:58:04.240Z,48.25
2023-04-10T15:00:35.158Z,47.83
2023-04-10T15:03:01.678Z,48.33
2023-04-10T15:05:28.264Z,48.27
2023-04-10T15:07:55.190Z,48.51
2023-04-10T15:10:21.852Z,47.89
2023-04-10T15:12:48.305Z,47.76
2023-04-10T15:15:17.892Z,47.29
2023-04-10T15:17:44.377Z,47.47
2023-04-10T15:20:11.472Z,47.92
2023-04-10T15:22:38.014Z,48.55
2023-04-10T15:25:04.937Z,47.47
2023-04-10T15:27:31.453Z,47.68
2023-04-10T15:29:58.379Z,47.54
2023-04-10T15:32:24.891Z,48.28
2023-04-10T15:34:51.377Z,48.24
2023-04-10T15:37:17.851Z,48.35
2023-04-10T15:39:44.363Z,48.33
2023-04-10T15:42:11.104Z,48.09
2023-04-10T15:44:37.609Z,48.09
2023-04-10T15:47:04.121Z,47.88
2023-04-10T15:49:37.934Z,47.87
2023-04-10T15:52:06.573Z,47.10
2023-04-10T15:54:34.030Z,46.16
2023-04-10T15:57:01.747Z,46.42
2023-04-10T15:59:29.528Z,46.63
2023-04-10T16:01:57.765Z,46.57
2023-04-10T16:04:24.549Z,46.15
2023-04-10T16:06:51.300Z,46.76
2023-04-10T16:11:47.607Z,46.15
2023-04-10T16:14:14.076Z,46.34
2023-04-10T16:16:40.821Z,46.53
2023-04-10T16:19:07.280Z,46.64
2023-04-10T16:21:33.764Z,47.17
2023-04-10T16:24:00.873Z,46.89
2023-04-10T16:26:27.400Z,47.62
2023-04-10T16:28:54.069Z,47.69
2023-04-10T16:31:20.954Z,47.70
2023-04-10T16:33:47.398Z,47.88
2023-04-10T16:36:13.952Z,47.90
2023-04-10T16:38:40.374Z,48.29
2023-04-10T16:41:07.058Z,48.44
2023-04-10T16:43:33.520Z,48.13
2023-04-10T16:46:00.211Z,48.84
2023-04-10T16:48:27.148Z,49.01
2023-04-10T16:50:53.649Z,48.61
2023-04-10T16:53:20.188Z,49.62
2023-04-10T16:55:46.871Z,49.23
2023-04-10T16:58:13.391Z,49.46
2023-04-10T17:00:39.846Z,49.28
2023-04-10T17:03:07.193Z,50.08
2023-04-10T17:05:36.527Z,50.56
2023-04-10T17:08:06.499Z,50.14
2023-04-10T17:10:33.018Z,50.40
2023-04-10T17:12:59.518Z,51.04
2023-04-10T17:15:26.169Z,51.06
2023-04-10T17:17:54.142Z,51.19
2023-04-10T17:20:20.997Z,51.28
2023-04-10T17:22:47.518Z,51.20
2023-04-10T17:25:16.855Z,51.50
2023-04-10T17:27:43.342Z,51.97
2023-04-10T17:30:13.184Z,51.89
2023-04-10T17:32:44.219Z,51.78
2023-04-10T17:35:10.720Z,51.82
2023-04-10T17:37:37.213Z,52.09
2023-04-10T17:40:03.845Z,51.71
2023-04-10T17:42:30.413Z,51.93
2023-04-10T17:44:56.904Z,52.29
2023-04-10T17:47:26.747Z,52.16
2023-04-10T17:49:53.206Z,52.20
2023-04-10T17:52:19.654Z,52.19
2023-04-10T17:54:46.107Z,52.43
2023-04-10T17:57:12.552Z,52.58
2023-04-10T17:59:39.027Z,52.81
2023-04-10T18:02:05.526Z,52.73
2023-04-10T18:04:32.038Z,52.70
2023-04-10T18:06:58.486Z,53.17
2023-04-10T18:09:24.972Z,53.05
2023-04-10T18:11:52.235Z,53.15
2023-04-10T18:14:19.429Z,53.33
2023-04-10T18:16:46.275Z,53.61
2023-04-10T18:19:12.789Z,53.56
2023-04-10T18:21:41.901Z,53.60
2023-04-10T18:24:12.135Z,53.89
2023-04-10T18:26:38.660Z,53.74
2023-04-10T18:29:05.409Z,53.53
2023-04-10T18:31:35.273Z,53.71
2023-04-10T18:34:08.337Z,53.79
2023-04-10T18:36:35.036Z,53.75
2023-04-10T18:39:01.670Z,54.22
2023-04-10T18:41:28.226Z,53.91
2023-04-10T18:44:04.071Z,54.04
2023-04-10T18:46:32.557Z,53.97
2023-04-10T18:49:01.100Z,53.50
2023-04-10T18:51:28.053Z,53.89
2023-04-10T18:53:54.763Z,53.94
2023-04-10T18:56:21.576Z,54.07
2023-04-10T18:58:50.006Z,54.49
2023-04-10T19:01:20.643Z,54.50
2023-04-10T19:03:50.072Z,54.54
2023-04-10T19:06:18.425Z,54.15
2023-04-10T19:08:44.856Z,53.97
2023-04-10T19:11:12.183Z,54.48
2023-04-10T19:13:38.719Z,54.20
2023-04-10T19:16:05.563Z,54.52
2023-04-10T19:18:32.310Z,54.46
2023-04-10T19:20:59.184Z,54.79
2023-04-10T19:23:26.255Z,54.59
2023-04-10T19:25:54.520Z,54.61
2023-04-10T19:28:23.485Z,54.74
2023-04-10T19:30:50.303Z,54.70
2023-04-10T19:33:17.238Z,54.49
2023-04-10T19:35:43.877Z,54.44
2023-04-10T19:38:10.540Z,54.82
2023-04-10T19:40:37.357Z,54.82
2023-04-10T19:43:04.032Z,54.88
2023-04-10T19:45:32.543Z,54.38
2023-04-10T19:47:59.539Z,54.47
2023-04-10T19:50:28.382Z,54.76
2023-04-10T19:52:54.923Z,54.43
2023-04-10T19:55:21.604Z,54.55
2023-04-10T19:57:48.375Z,54.59
2023-04-10T20:00:16.791Z,54.53
2023-04-10T20:02:43.497Z,54.58
2023-04-10T20:05:10.522Z,54.73
2023-04-10T20:07:37.033Z,53.99
2023-04-10T20:10:04.786Z,54.49
2023-04-10T20:12:34.338Z,54.29
2023-04-10T20:15:02.077Z,54.44
2023-04-10T20:17:29.165Z,54.22
2023-04-10T20:19:56.233Z,54.03
2023-04-10T20:22:23.005Z,53.79
2023-04-10T20:24:49.520Z,53.59
2023-04-10T20:27:18.928Z,54.19
2023-04-10T20:29:45.599Z,54.17
2023-04-10T20:32:15.476Z,54.12
2023-04-10T20:34:43.217Z,54.32
2023-04-10T20:37:16.060Z,54.31
2023-04-10T20:39:42.612Z,54.55
2023-04-10T20:42:14.607Z,54.45
2023-04-10T20:44:45.045Z,54.52
2023-04-10T20:47:11.594Z,54.07
2023-04-10T20:49:41.315Z,54.12
2023-04-10T20:52:07.785Z,53.44
2023-04-10T20:54:34.224Z,53.75
2023-04-10T20:57:01.771Z,53.51
2023-04-10T20:59:29.332Z,53.39
2023-04-10T21:01:57.277Z,53.19
2023-04-10T21:04:23.881Z,53.48
2023-04-10T21:06:50.453Z,53.95
2023-04-10T21:09:16.927Z,53.80
2023-04-10T21:11:46.851Z,53.59
2023-04-10T21:14:13.692Z,53.89
2023-04-10T21:16:42.556Z,53.90
2023-04-10T21:19:09.481Z,54.11
2023-04-10T21:21:36.035Z,53.78
2023-04-10T21:24:02.553Z,53.94
2023-04-10T21:26:29.123Z,53.70
2023-04-10T21:28:55.978Z,53.88
2023-04-10T21:31:29.427Z,53.54
2023-04-10T21:33:55.882Z,53.12
2023-04-10T21:36:22.326Z,53.25
2023-04-10T21:38:48.799Z,53.65
2023-04-10T21:41:15.424Z,53.68
2023-04-10T21:43:43.173Z,53.17
2023-04-10T21:46:09.772Z,52.77
2023-04-10T21:48:36.415Z,53.04
2023-04-10T21:51:03.203Z,52.68
2023-04-10T21:53:32.950Z,52.65
2023-04-10T21:55:59.447Z,53.08
2023-04-10T21:58:27.693Z,52.79
2023-04-10T22:00:54.540Z,52.84
2023-04-10T22:03:24.473Z,52.62
2023-04-10T22:05:51.078Z,52.75
2023-04-10T22:08:22.571Z,53.33
2023-04-10T22:10:49.155Z,53.52
2023-04-10T22:13:29.514Z,53.28
2023-04-10T22:15:57.991Z,53.45
2023-04-10T22:18:24.491Z,53.63
2023-04-10T22:20:51.007Z,54.32
2023-04-10T22:23:19.831Z,54.52
2023-04-10T22:25:49.344Z,55.74
2023-04-10T22:28:21.840Z,54.74
2023-04-10T22:30:48.326Z,55.64
2023-04-10T22:33:15.452Z,55.72
2023-04-10T22:35:41.922Z,56.16
2023-04-10T22:38:09.184Z,56.08
2023-04-10T22:40:38.650Z,55.62
2023-04-10T22:43:05.172Z,55.32
2023-04-10T22:45:31.641Z,55.77
2023-04-10T22:48:01.054Z,56.51
2023-04-10T22:50:27.555Z,58.06
2023-04-10T22:52:53.987Z,58.43
2023-04-10T22:55:23.081Z,59.61
2023-04-10T22:57:49.677Z,61.35
2023-04-10T23:00:16.494Z,63.81
2023-04-10T23:02:43.054Z,65.15
2023-04-10T23:05:09.755Z,66.00
2023-04-10T23:07:36.188Z,67.22
2023-04-10T23:10:02.683Z,69.34
2023-04-10T23:12:29.211Z,70.45
2023-04-10T23:14:58.909Z,69.61
2023-04-10T23:17:25.469Z,69.75
2023-04-10T23:19:51.983Z,70.76
2023-04-10T23:22:18.458Z,71.55
2023-04-10T23:24:45.757Z,72.87
2023-04-10T23:27:12.247Z,73.68
2023-04-10T23:29:38.713Z,74.76
2023-04-10T23:32:05.379Z,75.66
2023-04-10T23:34:31.836Z,76.11
2023-04-10T23:36:58.417Z,76.00
2023-04-10T23:39:24.967Z,76.08
2023-04-10T23:41:53.268Z,76.90
2023-04-10T23:44:19.759Z,78.16
2023-04-10T23:46:46.225Z,79.54
2023-04-10T23:49:16.227Z,80.12
2023-04-10T23:51:42.857Z,80.91
2023-04-10T23:54:11.917Z,82.89
2023-04-10T23:56:43.931Z,84.60
2023-04-10T23:59:10.276Z,84.72
